sensor_id;sensor_type;location;lat;lon;timestamp;temperature;humidity
12843;DHT22;35724;49.324;-123.118;2023-06-26T00:13:43;26.30;58.60
12843;DHT22;35724;49.324;-123.118;2023-06-26T00:23:53;26.40;57.80
12843;DHT22;35724;49.324;-123.118;2023-06-26T00:34:02;26.40;57.80
12843;DHT22;35724;49.324;-123.118;2023-06-26T00:44:09;26.40;57.70
12843;DHT22;35724;49.324;-123.118;2023-06-26T00:54:17;26.50;57.30
12843;DHT22;35724;49.324;-123.118;2023-06-26T01:04:27;26.50;56.60
12843;DHT22;35724;49.324;-123.118;2023-06-26T01:14:39;26.50;56.00
12843;DHT22;35724;49.324;-123.118;2023-06-26T01:35:18;26.50;56.50
12843;DHT22;35724;49.324;-123.118;2023-06-26T01:45:28;26.60;56.60
12843;DHT22;35724;49.324;-123.118;2023-06-26T01:55:41;26.60;56.70
12843;DHT22;35724;49.324;-123.118;2023-06-26T02:05:52;26.70;55.80
12843;DHT22;35724;49.324;-123.118;2023-06-26T02:16:01;26.70;54.90
12843;DHT22;35724;49.324;-123.118;2023-06-26T02:26:08;26.80;54.20
12843;DHT22;35724;49.324;-123.118;2023-06-26T02:36:21;26.80;52.80
12843;DHT22;35724;49.324;-123.118;2023-06-26T02:46:30;26.80;51.80
12843;DHT22;35724;49.324;-123.118;2023-06-26T02:56:43;26.80;51.10
12843;DHT22;35724;49.324;-123.118;2023-06-26T03:06:56;26.70;52.70
12843;DHT22;35724;49.324;-123.118;2023-06-26T03:17:14;26.70;53.10
12843;DHT22;35724;49.324;-123.118;2023-06-26T03:28:37;26.70;52.80
12843;DHT22;35724;49.324;-123.118;2023-06-26T03:38:51;26.70;53.00
12843;DHT22;35724;49.324;-123.118;2023-06-26T03:49:02;26.80;52.20
12843;DHT22;35724;49.324;-123.118;2023-06-26T03:59:14;26.90;52.00
12843;DHT22;35724;49.324;-123.118;2023-06-26T04:09:21;26.90;53.20
12843;DHT22;35724;49.324;-123.118;2023-06-26T04:43:04;26.90;56.60
12843;DHT22;35724;49.324;-123.118;2023-06-26T04:53:11;26.90;57.00
12843;DHT22;35724;49.324;-123.118;2023-06-26T05:03:20;26.90;57.70
12843;DHT22;35724;49.324;-123.118;2023-06-26T05:13:27;27.00;57.90
12843;DHT22;35724;49.324;-123.118;2023-06-26T05:23:43;27.10;57.90
12843;DHT22;35724;49.324;-123.118;2023-06-26T05:34:11;27.10;57.90
12843;DHT22;35724;49.324;-123.118;2023-06-26T05:55:29;27.30;58.00
12843;DHT22;35724;49.324;-123.118;2023-06-26T06:05:46;27.30;58.30
12843;DHT22;35724;49.324;-123.118;2023-06-26T06:15:55;27.50;56.90
12843;DHT22;35724;49.324;-123.118;2023-06-26T06:26:02;27.50;56.90
12843;DHT22;35724;49.324;-123.118;2023-06-26T06:36:10;27.50;56.60
12843;DHT22;35724;49.324;-123.118;2023-06-26T06:46:18;27.40;56.60
12843;DHT22;35724;49.324;-123.118;2023-06-26T06:56:27;27.40;56.80
12843;DHT22;35724;49.324;-123.118;2023-06-26T07:06:34;27.40;56.70
12843;DHT22;35724;49.324;-123.118;2023-06-26T07:16:48;27.40;56.80
12843;DHT22;35724;49.324;-123.118;2023-06-26T07:26:55;27.40;56.80
12843;DHT22;35724;49.324;-123.118;2023-06-26T07:37:04;27.40;56.70
12843;DHT22;35724;49.324;-123.118;2023-06-26T07:47:11;27.40;56.60
12843;DHT22;35724;49.324;-123.118;2023-06-26T07:57:40;27.40;56.60
12843;DHT22;35724;49.324;-123.118;2023-06-26T08:08:50;27.50;56.60
12843;DHT22;35724;49.324;-123.118;2023-06-26T08:19:17;27.50;56.60
12843;DHT22;35724;49.324;-123.118;2023-06-26T08:29:24;27.50;56.60
12843;DHT22;35724;49.324;-123.118;2023-06-26T08:39:46;27.50;56.60
12843;DHT22;35724;49.324;-123.118;2023-06-26T08:50:06;27.50;57.30
12843;DHT22;35724;49.324;-123.118;2023-06-26T09:00:24;27.60;56.70
12843;DHT22;35724;49.324;-123.118;2023-06-26T09:11:17;27.50;56.60
12843;DHT22;35724;49.324;-123.118;2023-06-26T09:21:53;27.60;56.60
12843;DHT22;35724;49.324;-123.118;2023-06-26T09:32:35;27.60;56.60
12843;DHT22;35724;49.324;-123.118;2023-06-26T09:42:48;27.60;56.60
12843;DHT22;35724;49.324;-123.118;2023-06-26T09:53:08;27.60;56.60
12843;DHT22;35724;49.324;-123.118;2023-06-26T10:03:18;27.60;56.70
12843;DHT22;35724;49.324;-123.118;2023-06-26T10:13:33;27.60;56.60
12843;DHT22;35724;49.324;-123.118;2023-06-26T10:23:51;27.60;56.60
12843;DHT22;35724;49.324;-123.118;2023-06-26T10:34:01;27.60;56.70
12843;DHT22;35724;49.324;-123.118;2023-06-26T10:44:12;27.60;56.70
12843;DHT22;35724;49.324;-123.118;2023-06-26T10:54:25;27.60;56.60
12843;DHT22;35724;49.324;-123.118;2023-06-26T11:04:40;27.60;56.60
12843;DHT22;35724;49.324;-123.118;2023-06-26T11:14:51;27.70;56.60
12843;DHT22;35724;49.324;-123.118;2023-06-26T11:25:00;27.70;56.60
12843;DHT22;35724;49.324;-123.118;2023-06-26T11:35:08;27.70;56.60
12843;DHT22;35724;49.324;-123.118;2023-06-26T11:45:17;27.70;56.60
12843;DHT22;35724;49.324;-123.118;2023-06-26T11:55:25;27.70;56.60
12843;DHT22;35724;49.324;-123.118;2023-06-26T12:05:34;27.70;56.60
12843;DHT22;35724;49.324;-123.118;2023-06-26T12:15:44;27.70;56.60
12843;DHT22;35724;49.324;-123.118;2023-06-26T12:25:54;27.70;56.60
12843;DHT22;35724;49.324;-123.118;2023-06-26T12:36:02;27.70;56.60
12843;DHT22;35724;49.324;-123.118;2023-06-26T12:46:11;27.70;56.60
12843;DHT22;35724;49.324;-123.118;2023-06-26T12:56:18;27.70;56.60
12843;DHT22;35724;49.324;-123.118;2023-06-26T13:06:28;27.70;56.60
12843;DHT22;35724;49.324;-123.118;2023-06-26T13:16:35;27.80;56.60
12843;DHT22;35724;49.324;-123.118;2023-06-26T13:26:44;27.80;56.70
12843;DHT22;35724;49.324;-123.118;2023-06-26T13:36:51;27.80;56.70
12843;DHT22;35724;49.324;-123.118;2023-06-26T13:47:13;27.90;56.80
12843;DHT22;35724;49.324;-123.118;2023-06-26T13:57:26;27.90;56.70
12843;DHT22;35724;49.324;-123.118;2023-06-26T14:07:47;27.90;56.70
12843;DHT22;35724;49.324;-123.118;2023-06-26T14:17:55;27.90;57.40
12843;DHT22;35724;49.324;-123.118;2023-06-26T14:40:09;28.00;56.40
12843;DHT22;35724;49.324;-123.118;2023-06-26T17:20:41;27.60;54.50
12843;DHT22;35724;49.324;-123.118;2023-06-26T17:43:53;27.60;55.40
12843;DHT22;35724;49.324;-123.118;2023-06-26T18:07:52;27.70;56.10
12843;DHT22;35724;49.324;-123.118;2023-06-26T18:18:41;27.70;56.30
12843;DHT22;35724;49.324;-123.118;2023-06-26T19:41:34;27.70;55.70
12843;DHT22;35724;49.324;-123.118;2023-06-26T20:28:24;27.20;58.00
12843;DHT22;35724;49.324;-123.118;2023-06-26T20:38:34;27.40;57.50
12843;DHT22;35724;49.324;-123.118;2023-06-26T20:48:52;27.40;57.70
12843;DHT22;35724;49.324;-123.118;2023-06-26T20:59:14;27.30;57.80
12843;DHT22;35724;49.324;-123.118;2023-06-26T21:21:18;27.30;58.50
12843;DHT22;35724;49.324;-123.118;2023-06-26T21:31:49;27.30;57.70
12843;DHT22;35724;49.324;-123.118;2023-06-26T21:42:40;27.20;58.20
12843;DHT22;35724;49.324;-123.118;2023-06-26T21:52:47;27.00;58.50
12843;DHT22;35724;49.324;-123.118;2023-06-26T22:03:18;26.90;58.60
12843;DHT22;35724;49.324;-123.118;2023-06-26T22:13:26;26.80;58.80
12843;DHT22;35724;49.324;-123.118;2023-06-26T22:23:35;26.70;59.00
12843;DHT22;35724;49.324;-123.118;2023-06-26T22:33:42;26.80;59.30
12843;DHT22;35724;49.324;-123.118;2023-06-26T22:43:59;26.80;59.30
12843;DHT22;35724;49.324;-123.118;2023-06-26T22:54:15;26.90;59.50
12843;DHT22;35724;49.324;-123.118;2023-06-26T23:04:38;26.80;59.30
12843;DHT22;35724;49.324;-123.118;2023-06-26T23:15:21;26.80;59.70
12843;DHT22;35724;49.324;-123.118;2023-06-26T23:25:35;26.80;60.40
12843;DHT22;35724;49.324;-123.118;2023-06-26T23:35:44;27.10;59.60
12843;DHT22;35724;49.324;-123.118;2023-06-26T23:45:53;27.20;59.90
12843;DHT22;35724;49.324;-123.118;2023-06-26T23:56:03;27.20;59.80
